Time;durP1;ratioP1;P1;durP2;ratioP2;P2;SDS_P1;SDS_P2;PMS_P1;PMS_P2;Temp;Humidity;BMP_temperature;BMP_pressure;BME280_temperature;BME280_humidity;BME280_pressure;Samples;Min_cycle;Max_cycle;Signal;HPM_P1;HPM_P2
2022/01/15 00:01:28;;;;;;;;;;;3.60;99.90;;;;;;5121230;27;19912;-72
2022/01/15 00:03:54;;;;;;;;;;;3.60;99.90;;;;;;5131247;27;19918;-73
2022/01/15 00:06:19;;;;;;;;;;;3.60;99.90;;;;;;5119039;27;19926;-68
2022/01/15 00:08:45;;;;;;;;;;;3.60;99.90;;;;;;5120844;27;19972;-71
2022/01/15 00:11:11;;;;;;;;;;;3.60;99.90;;;;;;5119095;27;19958;-71
2022/01/15 00:13:39;;;;;;;;;;;3.70;99.90;;;;;;5131810;27;20382;-72
2022/01/15 00:16:11;;;;;;;;;;;3.70;99.90;;;;;;5120334;27;19966;-71
2022/01/15 00:19:12;;;;;;;;;;;3.70;99.90;;;;;;5121746;27;19946;-73
2022/01/15 00:21:28;;;;;;;;;;;3.70;99.90;;;;;;5127179;27;19912;-72
2022/01/15 00:23:54;;;;;;;;;;;3.70;99.90;;;;;;5128358;27;19933;-74
2022/01/15 00:26:20;;;;;;;;;;;3.60;99.90;;;;;;5131495;27;20340;-75
2022/01/15 00:28:45;;;;;;;;;;;3.70;99.90;;;;;;5127911;27;19941;-71
2022/01/15 00:31:11;;;;;;;;;;;3.60;99.90;;;;;;5118702;27;19919;-71
2022/01/15 00:33:36;;;;;;;;;;;3.50;99.90;;;;;;5122353;27;20442;-72
2022/01/15 00:36:02;;;;;;;;;;;3.40;99.90;;;;;;5121189;27;20287;-72
2022/01/15 00:38:28;;;;;;;;;;;3.40;99.90;;;;;;5123868;27;19911;-72
2022/01/15 00:40:53;;;;;;;;;;;3.40;99.90;;;;;;5127644;27;20421;-72
2022/01/15 00:43:19;;;;;;;;;;;3.30;99.90;;;;;;5126172;27;19930;-72
2022/01/15 00:45:45;;;;;;;;;;;3.30;99.90;;;;;;5123133;27;20301;-71
2022/01/15 00:48:10;;;;;;;;;;;3.30;99.90;;;;;;5126527;27;19919;-72
2022/01/15 00:50:36;;;;;;;;;;;3.40;99.90;;;;;;5123843;27;20319;-72
2022/01/15 00:53:02;;;;;;;;;;;3.50;99.90;;;;;;5125383;27;19971;-73
2022/01/15 00:55:27;;;;;;;;;;;3.40;99.90;;;;;;5121482;27;20288;-72
2022/01/15 00:57:53;;;;;;;;;;;3.40;99.90;;;;;;5128306;27;20296;-73
2022/01/15 01:00:20;;;;;;;;;;;3.40;99.90;;;;;;5126974;27;20419;-73
2022/01/15 01:02:45;;;;;;;;;;;3.30;99.90;;;;;;5122226;27;19916;-73
2022/01/15 01:05:11;;;;;;;;;;;3.30;99.90;;;;;;5124189;27;19922;-72
2022/01/15 01:07:37;;;;;;;;;;;3.40;99.90;;;;;;5124393;27;19915;-74
2022/01/15 01:21:02;;;;;;;;;;;3.50;99.90;;;;;;5122362;27;20558;-70
2022/01/15 01:23:28;;;;;;;;;;;3.50;99.90;;;;;;5122626;27;19912;-72
2022/01/15 01:26:00;;;;;;;;;;;3.50;99.90;;;;;;5128700;27;19981;-72
2022/01/15 01:28:37;;;;;;;;;;;3.50;99.90;;;;;;5128808;27;19912;-72
2022/01/15 01:33:35;;;;;;;;;;;3.50;99.90;;;;;;5127583;27;19922;-72
2022/01/15 01:36:22;;;;;;;;;;;3.40;99.90;;;;;;5120271;27;19912;-72
2022/01/15 01:39:02;;;;;;;;;;;3.40;99.90;;;;;;5122162;27;19946;-71
2022/01/15 01:41:35;;;;;;;;;;;3.40;99.90;;;;;;5122277;27;20007;-72
2022/01/15 01:44:03;;;;;;;;;;;3.40;99.90;;;;;;5123422;27;19964;-72
2022/01/15 01:48:55;;;;;;;;;;;3.40;99.90;;;;;;5130243;27;19919;-71
2022/01/15 01:51:25;;;;;;;;;;;3.20;99.90;;;;;;5125183;27;19919;-72
2022/01/15 01:53:51;;;;;;;;;;;3.20;99.90;;;;;;5124807;27;19960;-71
2022/01/15 01:56:18;;;;;;;;;;;3.20;99.90;;;;;;5125731;27;19936;-73
2022/01/15 01:58:43;;;;;;;;;;;3.30;99.90;;;;;;5121652;27;20009;-70
2022/01/15 02:01:09;;;;;;;;;;;3.30;99.90;;;;;;5122423;27;19990;-71
2022/01/15 02:03:35;;;;;;;;;;;3.30;99.90;;;;;;5128395;27;19970;-71
2022/01/15 02:06:01;;;;;;;;;;;3.30;99.90;;;;;;5122798;27;19916;-71
2022/01/15 02:08:26;;;;;;;;;;;3.30;99.90;;;;;;5121580;27;19918;-72
2022/01/15 02:10:52;;;;;;;;;;;3.30;99.90;;;;;;5127779;27;19912;-72
2022/01/15 02:13:18;;;;;;;;;;;3.30;99.90;;;;;;5122898;27;19918;-72
2022/01/15 02:15:44;;;;;;;;;;;3.30;99.90;;;;;;5126228;27;19922;-72
2022/01/15 02:18:11;;;;;;;;;;;3.20;99.90;;;;;;5123238;27;19911;-73
2022/01/15 02:20:49;;;;;;;;;;;3.20;99.90;;;;;;5119372;27;19911;-70
2022/01/15 02:23:33;;;;;;;;;;;3.20;99.90;;;;;;5122359;27;19918;-72
2022/01/15 02:26:02;;;;;;;;;;;3.30;99.90;;;;;;5122633;27;19923;-72
2022/01/15 02:28:29;;;;;;;;;;;3.30;99.90;;;;;;5125511;27;19911;-71
2022/01/15 02:30:55;;;;;;;;;;;3.40;99.90;;;;;;5122360;27;19930;-72
2022/01/15 02:33:21;;;;;;;;;;;3.30;99.90;;;;;;5117594;27;19919;-71
2022/01/15 02:35:46;;;;;;;;;;;3.20;99.90;;;;;;5113675;27;19911;-72
2022/01/15 02:38:12;;;;;;;;;;;3.20;99.90;;;;;;5119380;27;20322;-72
2022/01/15 02:40:37;;;;;;;;;;;3.20;99.90;;;;;;5125332;28;19998;-73
2022/01/15 02:43:07;;;;;;;;;;;3.30;99.90;;;;;;5126607;27;20361;-72
2022/01/15 02:45:34;;;;;;;;;;;3.20;99.90;;;;;;5127100;27;19977;-72
2022/01/15 02:48:00;;;;;;;;;;;3.30;99.90;;;;;;5123851;27;19911;-74
2022/01/15 02:50:26;;;;;;;;;;;3.30;99.90;;;;;;5125656;27;20079;-74
2022/01/15 02:52:52;;;;;;;;;;;3.40;99.90;;;;;;5127448;27;20070;-72
2022/01/15 02:55:17;;;;;;;;;;;3.30;99.90;;;;;;5126526;27;19955;-71
2022/01/15 02:57:43;;;;;;;;;;;3.30;99.90;;;;;;5129604;27;19975;-74
2022/01/15 03:00:09;;;;;;;;;;;3.30;99.90;;;;;;5129105;27;20010;-72
2022/01/15 03:02:34;;;;;;;;;;;3.20;99.90;;;;;;5124344;27;19931;-73
2022/01/15 03:05:00;;;;;;;;;;;3.20;99.90;;;;;;5130784;27;19915;-73
2022/01/15 03:07:26;;;;;;;;;;;3.20;99.90;;;;;;5128138;27;19911;-73
2022/01/15 03:09:51;;;;;;;;;;;3.20;99.90;;;;;;5127787;27;19956;-72
2022/01/15 03:12:17;;;;;;;;;;;3.20;99.90;;;;;;5126229;27;20277;-73
2022/01/15 03:14:45;;;;;;;;;;;3.20;99.90;;;;;;5127605;27;19923;-72
2022/01/15 03:17:10;;;;;;;;;;;3.20;99.90;;;;;;5128027;27;19911;-71
2022/01/15 03:19:36;;;;;;;;;;;3.30;99.90;;;;;;5132915;27;19918;-71
2022/01/15 03:22:03;;;;;;;;;;;3.40;99.90;;;;;;5125520;27;19912;-72
2022/01/15 03:24:28;;;;;;;;;;;3.40;99.90;;;;;;5129699;27;19912;-71
2022/01/15 03:26:54;;;;;;;;;;;3.50;99.90;;;;;;5130207;27;19924;-72
2022/01/15 03:29:22;;;;;;;;;;;3.50;99.90;;;;;;5124152;27;19911;-71
2022/01/15 03:31:47;;;;;;;;;;;3.40;99.90;;;;;;5127560;27;19926;-72
2022/01/15 03:34:13;;;;;;;;;;;3.30;99.90;;;;;;5128415;27;19915;-72
2022/01/15 03:36:39;;;;;;;;;;;3.30;99.90;;;;;;5132774;27;20532;-71
2022/01/15 03:39:04;;;;;;;;;;;3.30;99.90;;;;;;5123693;27;19974;-74
2022/01/15 03:41:30;;;;;;;;;;;3.30;99.90;;;;;;5123742;27;19923;-72
2022/01/15 03:43:55;;;;;;;;;;;3.40;99.90;;;;;;5125105;27;19943;-71
2022/01/15 03:46:21;;;;;;;;;;;3.40;99.90;;;;;;5130128;27;19927;-71
2022/01/15 03:48:47;;;;;;;;;;;3.40;99.90;;;;;;5123578;27;20290;-73
2022/01/15 03:51:13;;;;;;;;;;;3.30;99.90;;;;;;5130303;27;19961;-70
2022/01/15 03:53:39;;;;;;;;;;;3.30;99.90;;;;;;5123805;27;19919;-72
2022/01/15 03:56:05;;;;;;;;;;;3.30;99.90;;;;;;5124238;27;20405;-72
2022/01/15 03:58:30;;;;;;;;;;;3.20;99.90;;;;;;5126322;27;19946;-71
2022/01/15 04:00:56;;;;;;;;;;;3.20;99.90;;;;;;5132288;27;19918;-73
2022/01/15 04:03:21;;;;;;;;;;;3.20;99.90;;;;;;5121685;27;19922;-73
2022/01/15 04:05:47;;;;;;;;;;;3.20;99.90;;;;;;5124774;27;19992;-71
2022/01/15 04:08:12;;;;;;;;;;;3.20;99.90;;;;;;5121243;27;19915;-71
2022/01/15 04:10:38;;;;;;;;;;;3.30;99.90;;;;;;5127125;27;20422;-71
2022/01/15 04:13:04;;;;;;;;;;;3.20;99.90;;;;;;5128135;27;19963;-73
2022/01/15 04:15:29;;;;;;;;;;;3.20;99.90;;;;;;5127204;27;19911;-73
2022/01/15 04:17:55;;;;;;;;;;;3.30;99.90;;;;;;5119269;27;20531;-73
2022/01/15 04:20:23;;;;;;;;;;;3.30;99.90;;;;;;5127733;27;19919;-72
2022/01/15 04:22:49;;;;;;;;;;;3.30;99.90;;;;;;5124841;27;19912;-69
2022/01/15 04:25:15;;;;;;;;;;;3.20;99.90;;;;;;5127654;27;19998;-71
2022/01/15 04:27:42;;;;;;;;;;;3.20;99.90;;;;;;5129535;27;19992;-71
2022/01/15 04:30:08;;;;;;;;;;;3.20;99.90;;;;;;5127007;27;19956;-74
2022/01/15 04:32:34;;;;;;;;;;;3.20;99.90;;;;;;5130003;27;19915;-71
2022/01/15 04:35:00;;;;;;;;;;;3.10;99.90;;;;;;5127760;27;19964;-72
2022/01/15 04:37:34;;;;;;;;;;;3.10;99.90;;;;;;5115296;27;19918;-70
2022/01/15 04:40:00;;;;;;;;;;;3.10;99.90;;;;;;5124457;27;19920;-74
2022/01/15 04:42:26;;;;;;;;;;;3.10;99.90;;;;;;5130676;27;19973;-72
2022/01/15 04:44:51;;;;;;;;;;;3.10;99.90;;;;;;5128265;27;19954;-72
2022/01/15 04:47:17;;;;;;;;;;;3.20;99.90;;;;;;5121896;27;20396;-73
2022/01/15 04:49:42;;;;;;;;;;;3.20;99.90;;;;;;5129948;27;19978;-72
2022/01/15 04:52:08;;;;;;;;;;;3.10;99.90;;;;;;5127819;27;19916;-72
2022/01/15 04:54:34;;;;;;;;;;;3.10;99.90;;;;;;5127778;27;19962;-72
2022/01/15 04:57:00;;;;;;;;;;;3.10;99.90;;;;;;5121829;27;20310;-73
2022/01/15 04:59:26;;;;;;;;;;;3.10;99.90;;;;;;5124176;27;19911;-71
2022/01/15 05:01:52;;;;;;;;;;;3.20;99.90;;;;;;5120377;27;19974;-72
2022/01/15 05:04:17;;;;;;;;;;;3.20;99.90;;;;;;5125903;27;19957;-72
2022/01/15 05:06:43;;;;;;;;;;;3.20;99.90;;;;;;5123389;27;19923;-74
2022/01/15 05:09:08;;;;;;;;;;;3.20;99.90;;;;;;5122595;27;20325;-72
2022/01/15 05:11:55;;;;;;;;;;;3.20;99.90;;;;;;5120778;27;19919;-71
2022/01/15 05:14:20;;;;;;;;;;;3.20;99.90;;;;;;5124384;27;19919;-71
2022/01/15 05:16:46;;;;;;;;;;;3.10;99.90;;;;;;5124499;27;19918;-70
2022/01/15 05:19:12;;;;;;;;;;;3.10;99.90;;;;;;5115320;27;20804;-72
2022/01/15 05:21:38;;;;;;;;;;;3.20;99.90;;;;;;5126859;27;19945;-71
2022/01/15 05:24:04;;;;;;;;;;;3.20;99.90;;;;;;5122371;27;20001;-73
2022/01/15 05:26:29;;;;;;;;;;;3.20;99.90;;;;;;5125934;27;20398;-71
2022/01/15 05:28:56;;;;;;;;;;;3.20;99.90;;;;;;5121829;27;19962;-72
2022/01/15 05:31:22;;;;;;;;;;;3.20;99.90;;;;;;5130056;27;19912;-71
2022/01/15 05:33:48;;;;;;;;;;;3.30;99.90;;;;;;5125552;27;19918;-72
2022/01/15 05:36:13;;;;;;;;;;;3.30;99.90;;;;;;5126498;27;20376;-72
2022/01/15 05:38:39;;;;;;;;;;;3.30;99.90;;;;;;5125437;27;19911;-70
2022/01/15 05:41:04;;;;;;;;;;;3.30;99.90;;;;;;5126133;27;20040;-72
2022/01/15 05:43:30;;;;;;;;;;;3.20;99.90;;;;;;5122543;27;19916;-73
2022/01/15 05:45:56;;;;;;;;;;;3.20;99.90;;;;;;5126296;27;20010;-73
2022/01/15 05:48:21;;;;;;;;;;;3.20;99.90;;;;;;5127780;27;19918;-70
2022/01/15 05:50:47;;;;;;;;;;;3.20;99.90;;;;;;5122928;27;20028;-72
2022/01/15 05:53:13;;;;;;;;;;;3.30;99.90;;;;;;5124955;27;19998;-71
2022/01/15 05:55:38;;;;;;;;;;;3.30;99.90;;;;;;5126118;27;19933;-72
2022/01/15 05:58:06;;;;;;;;;;;3.30;99.90;;;;;;5123734;27;19911;-73
2022/01/15 06:00:32;;;;;;;;;;;3.20;99.90;;;;;;5122657;27;19918;-74
2022/01/15 06:02:57;;;;;;;;;;;3.20;99.90;;;;;;5131545;27;19958;-72
2022/01/15 06:05:23;;;;;;;;;;;3.20;99.90;;;;;;5127693;27;19927;-72
2022/01/15 06:07:48;;;;;;;;;;;3.30;99.90;;;;;;5124466;27;19919;-72
2022/01/15 06:10:14;;;;;;;;;;;3.30;99.90;;;;;;5123624;27;19915;-71
2022/01/15 06:12:44;;;;;;;;;;;3.40;99.90;;;;;;5112183;27;20389;-73
2022/01/15 06:15:13;;;;;;;;;;;3.40;99.90;;;;;;5127482;27;19912;-71
2022/01/15 06:17:39;;;;;;;;;;;3.40;99.90;;;;;;5117916;27;19920;-72
2022/01/15 06:20:05;;;;;;;;;;;3.50;99.90;;;;;;5120860;27;20009;-73
2022/01/15 06:22:30;;;;;;;;;;;3.50;99.90;;;;;;5116585;27;20341;-72
2022/01/15 06:24:56;;;;;;;;;;;3.50;99.90;;;;;;5123495;27;19912;-72
2022/01/15 06:27:21;;;;;;;;;;;3.40;99.90;;;;;;5118026;27;19943;-72
2022/01/15 06:29:47;;;;;;;;;;;3.50;99.90;;;;;;5124837;27;19918;-73
2022/01/15 06:32:13;;;;;;;;;;;3.50;99.90;;;;;;5127351;27;19916;-72
2022/01/15 06:34:39;;;;;;;;;;;3.60;99.90;;;;;;5125508;27;19912;-70
2022/01/15 06:37:05;;;;;;;;;;;3.70;99.90;;;;;;5117289;27;19919;-74
2022/01/15 06:39:32;;;;;;;;;;;3.70;99.90;;;;;;5118254;27;19927;-70
2022/01/15 06:41:58;;;;;;;;;;;3.70;99.90;;;;;;5128385;28;20445;-73
2022/01/15 06:44:23;;;;;;;;;;;3.70;99.90;;;;;;5118929;27;20007;-71
2022/01/15 06:46:49;;;;;;;;;;;3.70;99.90;;;;;;5123488;27;19916;-72
2022/01/15 06:49:14;;;;;;;;;;;3.70;99.90;;;;;;5112766;27;19937;-73
2022/01/15 06:51:40;;;;;;;;;;;3.90;99.90;;;;;;5129777;28;20371;-72
2022/01/15 06:54:05;;;;;;;;;;;4.10;99.90;;;;;;5122581;28;19957;-72
2022/01/15 06:56:31;;;;;;;;;;;4.20;99.90;;;;;;5126543;27;19918;-72
2022/01/15 06:58:56;;;;;;;;;;;4.40;99.90;;;;;;5130925;27;19957;-72
2022/01/15 07:01:23;;;;;;;;;;;4.60;99.90;;;;;;5126089;28;19912;-74
2022/01/15 07:03:49;;;;;;;;;;;4.70;99.90;;;;;;5131661;28;19918;-73
2022/01/15 07:06:14;;;;;;;;;;;4.80;99.90;;;;;;5121529;28;19916;-72
2022/01/15 07:08:40;;;;;;;;;;;5.00;99.90;;;;;;5125576;28;20019;-73
2022/01/15 07:11:06;;;;;;;;;;;5.10;99.90;;;;;;5120578;27;19980;-73
2022/01/15 07:13:33;;;;;;;;;;;5.30;99.90;;;;;;5128156;27;19912;-73
2022/01/15 07:15:58;;;;;;;;;;;5.50;99.90;;;;;;5128865;28;19916;-75
2022/01/15 07:18:24;;;;;;;;;;;5.70;99.90;;;;;;5124471;27;19919;-70
2022/01/15 07:20:51;;;;;;;;;;;5.90;99.90;;;;;;5122169;28;19911;-74
2022/01/15 07:23:17;;;;;;;;;;;6.20;99.90;;;;;;5118552;28;19919;-73
2022/01/15 07:25:42;;;;;;;;;;;6.40;99.90;;;;;;5123512;28;19916;-73
2022/01/15 07:28:08;;;;;;;;;;;6.50;99.90;;;;;;5119195;28;19911;-73
2022/01/15 07:30:35;;;;;;;;;;;6.90;99.90;;;;;;5120021;27;20739;-74
2022/01/15 07:33:01;;;;;;;;;;;7.00;99.90;;;;;;5114857;27;20353;-75
2022/01/15 07:35:28;;;;;;;;;;;7.00;99.90;;;;;;5134475;27;19908;-75
2022/01/15 07:38:21;;;;;;;;;;;7.10;99.90;;;;;;5133652;27;19946;-74
2022/01/15 07:40:54;;;;;;;;;;;7.70;99.90;;;;;;5118921;27;19915;-75
2022/01/15 07:43:39;;;;;;;;;;;8.00;99.90;;;;;;5129171;27;19912;-75
2022/01/15 07:46:16;;;;;;;;;;;8.20;99.90;;;;;;5128367;27;19916;-75
2022/01/15 07:48:57;;;;;;;;;;;8.40;99.90;;;;;;5132174;27;19911;-72
2022/01/15 07:51:23;;;;;;;;;;;8.90;99.90;;;;;;5130371;27;19922;-72
2022/01/15 07:53:48;;;;;;;;;;;9.10;99.90;;;;;;5124094;27;19912;-71
2022/01/15 07:56:14;;;;;;;;;;;9.20;99.90;;;;;;5130437;27;19911;-73
2022/01/15 07:58:40;;;;;;;;;;;9.20;99.90;;;;;;5131165;27;20006;-75
2022/01/15 08:01:05;;;;;;;;;;;9.30;99.90;;;;;;5122986;27;20281;-74
2022/01/15 08:03:32;;;;;;;;;;;9.40;99.90;;;;;;5124558;27;19919;-72
2022/01/15 08:05:58;;;;;;;;;;;9.50;99.90;;;;;;5133034;27;19959;-72
2022/01/15 08:08:23;;;;;;;;;;;9.70;99.90;;;;;;5125059;27;19954;-72
2022/01/15 08:10:49;;;;;;;;;;;9.70;99.90;;;;;;5125419;27;19998;-75
2022/01/15 08:13:22;;;;;;;;;;;9.80;99.90;;;;;;5126217;27;19918;-75
2022/01/15 08:15:50;;;;;;;;;;;9.80;99.90;;;;;;5129540;27;19912;-73
2022/01/15 08:18:18;;;;;;;;;;;10.00;99.90;;;;;;5134635;27;20007;-73
2022/01/15 08:20:44;;;;;;;;;;;10.00;99.90;;;;;;5132422;27;19911;-72
2022/01/15 08:23:10;;;;;;;;;;;10.00;99.90;;;;;;5126518;27;19941;-70
2022/01/15 08:25:36;;;;;;;;;;;10.10;99.90;;;;;;5123713;27;19916;-74
2022/01/15 08:28:09;;;;;;;;;;;10.20;99.90;;;;;;5116353;27;19912;-69
2022/01/15 08:30:36;;;;;;;;;;;10.20;99.90;;;;;;5126869;27;20068;-69
2022/01/15 08:33:02;;;;;;;;;;;10.30;99.90;;;;;;5133656;27;19916;-69
2022/01/15 08:35:28;;;;;;;;;;;10.30;99.90;;;;;;5128019;27;19919;-70
2022/01/15 08:38:02;;;;;;;;;;;10.30;99.90;;;;;;5117275;27;19922;-69
2022/01/15 08:40:29;;;;;;;;;;;10.30;99.90;;;;;;5118645;27;20006;-69
2022/01/15 08:42:54;;;;;;;;;;;10.30;99.90;;;;;;5124919;27;20294;-69
2022/01/15 08:45:20;;;;;;;;;;;10.30;99.90;;;;;;5132594;27;19915;-70
2022/01/15 08:47:48;;;;;;;;;;;10.20;99.90;;;;;;5131588;27;19912;-69
2022/01/15 08:50:19;;;;;;;;;;;10.30;99.90;;;;;;5118989;27;19952;-71
2022/01/15 08:52:45;;;;;;;;;;;10.20;99.90;;;;;;5126159;27;19911;-70
2022/01/15 08:55:11;;;;;;;;;;;10.30;99.90;;;;;;5121207;27;19937;-70
2022/01/15 08:57:37;;;;;;;;;;;10.20;99.90;;;;;;5124575;27;19918;-70
2022/01/15 09:00:04;;;;;;;;;;;10.30;99.90;;;;;;5131149;27;19911;-69
2022/01/15 09:02:30;;;;;;;;;;;10.40;99.90;;;;;;5129957;27;20015;-71
2022/01/15 09:04:55;;;;;;;;;;;10.40;99.90;;;;;;5125636;27;19920;-69
2022/01/15 09:07:21;;;;;;;;;;;10.50;99.90;;;;;;5123262;27;19962;-69
2022/01/15 09:09:46;;;;;;;;;;;10.50;99.90;;;;;;5132568;27;19987;-69
2022/01/15 09:12:12;;;;;;;;;;;10.50;99.90;;;;;;5132753;27;19914;-69
2022/01/15 09:14:39;;;;;;;;;;;10.60;99.90;;;;;;5124910;27;19912;-70
2022/01/15 09:17:05;;;;;;;;;;;10.70;99.90;;;;;;5129383;27;20407;-71
2022/01/15 09:19:31;;;;;;;;;;;10.70;99.90;;;;;;5128990;27;19997;-70
2022/01/15 09:21:57;;;;;;;;;;;10.70;99.90;;;;;;5122331;27;19920;-70
2022/01/15 09:24:22;;;;;;;;;;;10.70;99.90;;;;;;5123549;27;19912;-70
2022/01/15 09:32:05;;;;;;;;;;;10.80;99.90;;;;;;5130318;27;19914;-72
2022/01/15 09:34:32;;;;;;;;;;;10.80;99.90;;;;;;5129040;27;19911;-69
2022/01/15 09:36:58;;;;;;;;;;;10.80;99.90;;;;;;5132594;27;20111;-70
2022/01/15 09:39:24;;;;;;;;;;;10.80;99.90;;;;;;5119498;27;20069;-73
2022/01/15 09:41:51;;;;;;;;;;;10.90;99.90;;;;;;5130579;27;19918;-72
2022/01/15 09:44:19;;;;;;;;;;;10.80;99.90;;;;;;5131541;27;19914;-73
2022/01/15 09:46:45;;;;;;;;;;;10.90;99.90;;;;;;5131797;27;20038;-73
2022/01/15 09:49:13;;;;;;;;;;;11.00;99.90;;;;;;5132241;27;19916;-74
2022/01/15 09:51:39;;;;;;;;;;;10.90;99.90;;;;;;5126867;27;19931;-72
2022/01/15 09:54:04;;;;;;;;;;;11.00;99.90;;;;;;5125156;27;20567;-71
2022/01/15 09:56:30;;;;;;;;;;;11.00;99.90;;;;;;5120111;27;19911;-73
2022/01/15 09:58:57;;;;;;;;;;;11.10;99.90;;;;;;5122655;27;20006;-69
2022/01/15 10:01:26;;;;;;;;;;;11.20;99.90;;;;;;5121528;27;19934;-69
2022/01/15 10:03:52;;;;;;;;;;;11.20;99.90;;;;;;5137202;27;19964;-68
2022/01/15 10:06:17;;;;;;;;;;;11.20;99.90;;;;;;5128539;27;19916;-68
2022/01/15 10:08:57;;;;;;;;;;;11.20;99.90;;;;;;5128177;27;19919;-67
2022/01/15 10:11:42;;;;;;;;;;;11.30;99.90;;;;;;5131087;27;20392;-69
2022/01/15 10:14:26;;;;;;;;;;;11.40;99.90;;;;;;5129782;27;19917;-69
2022/01/15 10:16:52;;;;;;;;;;;11.50;99.90;;;;;;5118247;27;19915;-72
2022/01/15 10:19:24;;;;;;;;;;;11.60;99.90;;;;;;5132062;27;19936;-69
2022/01/15 10:22:03;;;;;;;;;;;11.60;99.90;;;;;;5125846;27;19964;-68
2022/01/15 10:24:29;;;;;;;;;;;11.60;99.90;;;;;;5124345;27;19912;-68
2022/01/15 10:26:54;;;;;;;;;;;11.60;99.90;;;;;;5130207;27;19915;-68
2022/01/15 10:29:20;;;;;;;;;;;11.70;99.90;;;;;;5127572;27;19919;-70
2022/01/15 10:31:46;;;;;;;;;;;11.70;99.90;;;;;;5127186;27;20494;-70
2022/01/15 10:34:28;;;;;;;;;;;11.80;99.90;;;;;;5120442;27;19918;-69
2022/01/15 10:37:04;;;;;;;;;;;11.80;99.90;;;;;;5124621;27;19919;-69
2022/01/15 10:39:30;;;;;;;;;;;11.80;99.90;;;;;;5125306;27;19938;-69
2022/01/15 10:41:55;;;;;;;;;;;11.90;99.90;;;;;;5123472;28;20329;-69
2022/01/15 10:44:35;;;;;;;;;;;11.90;99.90;;;;;;5126445;28;19920;-69
2022/01/15 10:47:02;;;;;;;;;;;11.90;99.90;;;;;;5117378;27;20686;-69
2022/01/15 10:49:29;;;;;;;;;;;11.90;99.90;;;;;;5118967;28;20346;-68
2022/01/15 10:52:24;;;;;;;;;;;11.90;99.90;;;;;;5130429;28;20361;-69
2022/01/15 10:55:00;;;;;;;;;;;11.90;99.90;;;;;;5115910;27;19912;-69
2022/01/15 10:57:45;;;;;;;;;;;12.00;99.90;;;;;;5124303;28;20416;-68
2022/01/15 11:00:12;;;;;;;;;;;12.00;99.90;;;;;;5118300;28;19940;-68
2022/01/15 11:02:42;;;;;;;;;;;12.00;99.90;;;;;;5116307;28;19916;-68
2022/01/15 11:05:23;;;;;;;;;;;12.10;99.90;;;;;;5126680;27;20316;-69
2022/01/15 11:07:48;;;;;;;;;;;12.20;99.90;;;;;;5119969;27;19920;-68
2022/01/15 11:10:14;;;;;;;;;;;12.20;99.90;;;;;;5110510;27;19957;-69
2022/01/15 11:12:40;;;;;;;;;;;12.20;99.90;;;;;;5125922;27;19911;-68
2022/01/15 11:15:06;;;;;;;;;;;12.20;99.90;;;;;;5128775;27;20314;-69
2022/01/15 11:17:32;;;;;;;;;;;12.20;99.90;;;;;;5133605;27;20234;-69
2022/01/15 11:19:58;;;;;;;;;;;12.20;99.90;;;;;;5133400;27;19914;-69
2022/01/15 11:22:25;;;;;;;;;;;12.20;99.90;;;;;;5135344;27;19999;-69
2022/01/15 11:24:50;;;;;;;;;;;12.30;99.90;;;;;;5130928;27;20230;-68
2022/01/15 11:27:17;;;;;;;;;;;12.30;99.90;;;;;;5118825;27;19924;-68
2022/01/15 11:29:43;;;;;;;;;;;12.30;99.90;;;;;;5116011;27;19912;-68
2022/01/15 11:32:10;;;;;;;;;;;12.30;99.90;;;;;;5134221;27;19925;-68
2022/01/15 11:34:36;;;;;;;;;;;12.40;99.90;;;;;;5134447;27;19956;-68
2022/01/15 11:37:14;;;;;;;;;;;12.40;99.90;;;;;;5130587;27;19916;-69
2022/01/15 11:39:40;;;;;;;;;;;12.40;99.90;;;;;;5126598;27;19915;-69
2022/01/15 11:42:05;;;;;;;;;;;12.40;99.90;;;;;;5125918;27;20312;-67
2022/01/15 11:44:33;;;;;;;;;;;12.40;99.90;;;;;;5103321;27;19927;-69
2022/01/15 11:47:00;;;;;;;;;;;12.50;99.90;;;;;;5101143;27;19923;-68
2022/01/15 11:49:42;;;;;;;;;;;12.40;99.90;;;;;;5130161;27;19912;-70
2022/01/15 11:52:14;;;;;;;;;;;12.50;99.90;;;;;;5125538;27;19961;-69
2022/01/15 11:54:49;;;;;;;;;;;12.60;99.90;;;;;;5128806;27;19911;-69
2022/01/15 11:57:20;;;;;;;;;;;12.70;99.90;;;;;;5132030;27;20457;-69
2022/01/15 11:59:48;;;;;;;;;;;12.70;99.90;;;;;;5126844;27;19912;-69
2022/01/15 12:02:29;;;;;;;;;;;12.80;99.90;;;;;;5125682;27;20002;-67
2022/01/15 12:04:55;;;;;;;;;;;12.80;99.90;;;;;;5127500;27;19934;-68
2022/01/15 12:07:22;;;;;;;;;;;12.80;99.90;;;;;;5120285;27;20691;-69
2022/01/15 12:09:48;;;;;;;;;;;12.90;99.90;;;;;;5131324;27;20026;-70
2022/01/15 12:12:17;;;;;;;;;;;12.80;99.90;;;;;;5131917;27;20384;-68
2022/01/15 12:14:50;;;;;;;;;;;12.80;99.90;;;;;;5128391;27;20316;-69
2022/01/15 12:17:22;;;;;;;;;;;12.80;99.90;;;;;;5126846;27;19912;-70
2022/01/15 12:19:47;;;;;;;;;;;12.80;99.90;;;;;;5122634;27;20578;-68
2022/01/15 12:22:32;;;;;;;;;;;12.80;99.90;;;;;;5130508;27;19915;-69
2022/01/15 12:24:58;;;;;;;;;;;12.80;99.90;;;;;;5123046;27;20014;-68
2022/01/15 12:27:27;;;;;;;;;;;12.80;99.90;;;;;;5120500;27;20293;-69
2022/01/15 12:30:01;;;;;;;;;;;12.80;99.90;;;;;;5127614;27;20003;-68
2022/01/15 12:32:27;;;;;;;;;;;12.90;99.90;;;;;;5125802;27;20406;-68
2022/01/15 12:34:53;;;;;;;;;;;12.90;99.90;;;;;;5124070;27;19912;-68
2022/01/15 12:37:18;;;;;;;;;;;13.00;99.90;;;;;;5126088;27;19976;-69
2022/01/15 12:39:44;;;;;;;;;;;13.00;99.90;;;;;;5114249;27;19918;-68
2022/01/15 12:42:11;;;;;;;;;;;13.00;99.90;;;;;;5122607;27;19912;-68
2022/01/15 12:44:40;;;;;;;;;;;12.90;99.90;;;;;;5125469;27;19915;-69
2022/01/15 12:47:06;;;;;;;;;;;13.00;99.90;;;;;;5109254;27;19916;-68
2022/01/15 12:49:45;;;;;;;;;;;13.00;99.90;;;;;;5108471;27;20304;-69
2022/01/15 12:52:13;;;;;;;;;;;13.00;99.90;;;;;;5123265;27;19953;-68
2022/01/15 12:54:39;;;;;;;;;;;13.10;99.90;;;;;;5118456;27;19969;-69
2022/01/15 12:57:05;;;;;;;;;;;13.10;99.90;;;;;;5116525;27;20283;-68
2022/01/15 12:59:33;;;;;;;;;;;13.10;99.90;;;;;;5131597;27;19915;-69
2022/01/15 13:02:00;;;;;;;;;;;13.10;99.90;;;;;;5125434;27;19920;-68
2022/01/15 13:04:26;;;;;;;;;;;13.10;99.90;;;;;;5126526;27;19963;-69
2022/01/15 13:07:01;;;;;;;;;;;13.10;99.90;;;;;;5118758;27;19916;-69
2022/01/15 13:09:39;;;;;;;;;;;13.10;99.90;;;;;;5124950;27;19911;-69
2022/01/15 13:12:07;;;;;;;;;;;13.20;99.90;;;;;;5128727;27;19911;-68
2022/01/15 13:14:37;;;;;;;;;;;13.20;99.90;;;;;;5119673;27;19960;-68
2022/01/15 13:17:03;;;;;;;;;;;13.20;99.90;;;;;;5128512;27;19908;-69
2022/01/15 13:19:36;;;;;;;;;;;13.20;99.90;;;;;;5127994;27;19915;-69
2022/01/15 13:22:02;;;;;;;;;;;13.20;99.90;;;;;;5125502;27;20014;-69
2022/01/15 13:24:28;;;;;;;;;;;13.20;99.90;;;;;;5121133;27;20378;-68
2022/01/15 13:26:57;;;;;;;;;;;13.10;99.90;;;;;;5124067;27;19924;-68
2022/01/15 13:29:35;;;;;;;;;;;13.20;99.90;;;;;;5127386;27;19990;-68
2022/01/15 13:32:01;;;;;;;;;;;13.10;99.90;;;;;;5121483;27;19911;-69
2022/01/15 13:34:29;;;;;;;;;;;13.10;99.90;;;;;;5120296;27;20373;-68
2022/01/15 13:37:05;;;;;;;;;;;13.20;99.90;;;;;;5127594;27;19915;-68
2022/01/15 13:39:31;;;;;;;;;;;13.20;99.90;;;;;;5123691;27;19911;-68
2022/01/15 13:41:56;;;;;;;;;;;13.20;99.90;;;;;;5131026;27;20276;-69
2022/01/15 13:44:23;;;;;;;;;;;13.10;99.90;;;;;;5125705;27;20006;-70
2022/01/15 13:46:50;;;;;;;;;;;13.20;99.90;;;;;;5121228;27;20280;-67
2022/01/15 13:49:19;;;;;;;;;;;13.10;99.90;;;;;;5129554;27;19911;-68
2022/01/15 13:54:38;;;;;;;;;;;13.10;99.90;;;;;;5126164;27;20036;-69
2022/01/15 13:57:06;;;;;;;;;;;13.10;99.90;;;;;;5131198;27;19956;-67
2022/01/15 13:59:31;;;;;;;;;;;13.20;99.90;;;;;;5129923;27;19922;-69
2022/01/15 14:01:57;;;;;;;;;;;13.10;99.90;;;;;;5123273;27;19927;-68
2022/01/15 14:04:29;;;;;;;;;;;13.10;99.90;;;;;;5127864;27;20312;-68
2022/01/15 14:06:58;;;;;;;;;;;13.20;99.90;;;;;;5129353;27;20383;-69
2022/01/15 14:09:24;;;;;;;;;;;13.10;99.90;;;;;;5128084;27;19923;-69
2022/01/15 14:12:01;;;;;;;;;;;13.10;99.90;;;;;;5125197;27;19912;-68
2022/01/15 14:14:28;;;;;;;;;;;13.10;99.90;;;;;;5127625;27;19918;-69
2022/01/15 14:17:03;;;;;;;;;;;13.10;99.90;;;;;;5128684;27;19915;-68
2022/01/15 14:19:51;;;;;;;;;;;13.10;99.90;;;;;;5133048;27;19922;-68
2022/01/15 14:22:23;;;;;;;;;;;13.10;99.90;;;;;;5132342;27;19908;-68
2022/01/15 14:24:50;;;;;;;;;;;13.10;99.90;;;;;;5131151;27;19911;-68
2022/01/15 14:27:23;;;;;;;;;;;13.10;99.90;;;;;;5126309;27;19943;-68
2022/01/15 14:29:51;;;;;;;;;;;13.10;99.90;;;;;;5124132;27;19923;-68
2022/01/15 14:32:16;;;;;;;;;;;13.10;99.90;;;;;;5129229;27;20524;-69
2022/01/15 14:34:42;;;;;;;;;;;13.20;99.90;;;;;;5119070;27;19955;-68
2022/01/15 14:37:09;;;;;;;;;;;13.10;99.90;;;;;;5123974;27;20338;-69
2022/01/15 14:39:35;;;;;;;;;;;13.00;99.90;;;;;;5127482;27;19919;-68
2022/01/15 14:42:00;;;;;;;;;;;13.00;99.90;;;;;;5117899;28;20269;-68
2022/01/15 14:44:26;;;;;;;;;;;13.00;99.90;;;;;;5114544;28;19923;-68
2022/01/15 14:46:51;;;;;;;;;;;13.00;99.90;;;;;;5131557;27;19911;-69
2022/01/15 14:49:17;;;;;;;;;;;13.00;99.90;;;;;;5126969;28;20401;-68
2022/01/15 14:51:43;;;;;;;;;;;12.90;99.90;;;;;;5129255;28;19914;-69